Observations

80.6 °F / 27.0 °C
NE at 13 MPH
84%
75.4°F / 24.1 °C
29.88" (1011 mb)
10 mile(s)
partly cloudy
2022.08.14 2220 UTC

Observations

Surface


Raw METARs

2022/08/14 22:20
PKWA 142220Z AUTO 05011KT 10SM SCT011 27/24 A2988 RMK AO2 T02700241

Translated METAR

Kwajalein, Bucholz AAF, Kwajalein KMR ATOL Airport, Marshall Islands (PKWA) 08-43N 167-44E 2M
Aug 14, 2022 - 06:20 PM EDT / 2022.08.14 2220 UTC
Wind: from the NE (050 degrees) at 13 MPH (11 KT):0
Visibility: 10 mile(s):0
Sky conditions: partly cloudy
Temperature: 80.6 F (27.0 C)
Dew Point: 75.4 F (24.1 C)
Relative Humidity: 84%
Pressure (altimeter): 29.88 in. Hg (1011 hPa)
ob: PKWA 142220Z AUTO 05011KT 10SM SCT011 27/24 A2988 RMK AO2 T02700241
cycle: 22



Upper Air


Latest Skew-T

Skew T Diagram

Latest Data File